Tetraktys — OS6207 — position and weather

sailwx.info

Track history (hours):
 
Tides and Currents Weather Stations Pressure Air Temp Water Temp Dewpoint Dewpoint Depression Visibility Wind Speed Wind Dir Waves Ship Positions

Tetraktys

Last reported at 2017-Apr-25 16:07 UTC. Time now 2017-Apr-27 07:19 UTC.
Position N 46°30' W 001°47'.

Length 9 m.

Type: Sailing vessel. MMSI: 205620700.

Date/timePositionNaut miles runAvg speedWind from/ knotsBaromVisibWave heightAir tempDewpointWater temp
2017-Apr-25 16:07N 46°30' W 001°47'0 0.0
2017-Apr-25 15:58N 46°30' W 001°47'0 0.0
2017-Apr-25 15:28N 46°30' W 001°47'0 0.0
2017-Apr-25 15:00N 46°30' W 001°47'0 0.0
2017-Apr-25 14:30N 46°30' W 001°47'0 0.0
2017-Apr-25 13:30N 46°30' W 001°47'0 0.0
2017-Apr-25 13:00N 46°30' W 001°47'0 0.0
2017-Apr-25 12:30N 46°30' W 001°47'2 4.0
2017-Apr-25 12:00N 46°28' W 001°47'0 0.2
2017-Apr-25 11:30N 46°28' W 001°47'1 1.8
2017-Apr-25 11:00N 46°28' W 001°46'2 3.7
2017-Apr-25 10:30N 46°27' W 001°49'2 3.3
2017-Apr-25 10:00N 46°26' W 001°50'3 5.9
2017-Apr-25 09:30N 46°29' W 001°49'1 2.9
2017-Apr-25 09:00N 46°28' W 001°48'1 2.8
2017-Apr-25 08:30N 46°26' W 001°49'2 3.6
2017-Apr-25 08:00N 46°28' W 001°48'2 4.5
2017-Apr-25 07:29N 46°30' W 001°47'0 0.0
2017-Apr-25 06:59N 46°30' W 001°47'0 0.0
2017-Apr-25 06:29N 46°30' W 001°47'0 0.0
2017-Apr-24 16:03N 46°30' W 001°47'0 0.0
2017-Apr-24 16:00N 46°30' W 001°47'1 2.7
2017-Apr-24 15:30N 46°29' W 001°47'2 3.2
2017-Apr-24 15:00N 46°27' W 001°49'2 3.2
2017-Apr-24 14:30N 46°26' W 001°50'2 1.9
2017-Apr-24 13:31N 46°28' W 001°50'2 3.4
2017-Apr-24 13:01N 46°29' W 001°48'2 4.2
2017-Apr-24 12:31N 46°27' W 001°48'1 1.4
2017-Apr-24 12:00N 46°27' W 001°49'1 1.4
2017-Apr-24 11:31N 46°27' W 001°48'2 4.6
2017-Apr-24 11:01N 46°29' W 001°47'1 1.7
2017-Apr-24 10:31N 46°28' W 001°48'2 4.5
2017-Apr-24 10:01N 46°27' W 001°50'1 2.3
2017-Apr-24 09:31N 46°28' W 001°51'2 4.3
2017-Apr-24 09:00N 46°28' W 001°47'1 2.8
2017-Apr-24 08:31N 46°27' W 001°49'2 3.2
2017-Apr-24 08:01N 46°28' W 001°47'2 3.4
2017-Apr-24 07:30N 46°30' W 001°47'0 0.0
2017-Apr-23 16:12N 46°30' W 001°47'0 0.0
2017-Apr-23 16:00N 46°30' W 001°47'0 0.0
2017-Apr-23 15:28N 46°30' W 001°47'0 0.0
2017-Apr-23 15:00N 46°30' W 001°47'0 0.0
2017-Apr-23 14:30N 46°30' W 001°47'0 0.0
2017-Apr-23 13:30N 46°30' W 001°47'0 0.0
2017-Apr-23 13:00N 46°30' W 001°47'0 0.0
2017-Apr-23 12:30N 46°30' W 001°47'0 0.0
2017-Apr-23 12:00N 46°30' W 001°47'0 0.0
2017-Apr-23 11:30N 46°30' W 001°47'0 0.0
2017-Apr-23 11:00N 46°30' W 001°47'0 0.0
2017-Apr-23 10:30N 46°30' W 001°47'0 0.0
2017-Apr-23 10:00N 46°30' W 001°47'0 0.0
2017-Apr-23 09:30N 46°30' W 001°47'0 0.0
2017-Apr-23 09:00N 46°30' W 001°47'0 0.0
2017-Apr-23 08:30N 46°30' W 001°47'0 0.0
2017-Apr-23 08:00N 46°30' W 001°47'0 0.0
2017-Apr-23 07:30N 46°30' W 001°47'0 0.0
2017-Apr-23 07:00N 46°30' W 001°47'0 0.0
2017-Apr-23 06:30N 46°30' W 001°47'0 0.0
2017-Apr-23 06:00N 46°30' W 001°47'0 0.0
2017-Apr-23 05:30N 46°30' W 001°47'0 0.0
2017-Apr-23 05:00N 46°30' W 001°47'0 0.0
2017-Apr-23 04:30N 46°30' W 001°47'0 0.0
2017-Apr-23 04:00N 46°30' W 001°47'0 0.0
2017-Apr-23 03:27N 46°30' W 001°47'0 0.0
2017-Apr-23 03:00N 46°30' W 001°47'0 0.0
2017-Apr-23 02:30N 46°30' W 001°47'0 0.0
2017-Apr-23 02:00N 46°30' W 001°47'0 0.0
2017-Apr-23 01:30N 46°30' W 001°47'0 0.0
2017-Apr-23 01:00N 46°30' W 001°47'0 0.0
2017-Apr-23 00:30N 46°30' W 001°47'0 0.0
2017-Apr-23 00:00N 46°30' W 001°47'0 0.0
2017-Apr-22 23:30N 46°30' W 001°47'0 0.0
2017-Apr-22 23:00N 46°30' W 001°47'0 0.0
2017-Apr-22 22:30N 46°30' W 001°47'0 0.0
2017-Apr-22 22:00N 46°30' W 001°47'0 0.0
2017-Apr-22 21:30N 46°30' W 001°47'0 0.0
2017-Apr-22 21:00N 46°30' W 001°47'0 0.0
2017-Apr-22 20:30N 46°30' W 001°47'0 0.0
2017-Apr-22 20:00N 46°30' W 001°47'0 0.0
2017-Apr-22 19:27N 46°30' W 001°47'0 0.0
2017-Apr-22 19:00N 46°30' W 001°47'0 0.0
2017-Apr-22 18:30N 46°30' W 001°47'0 0.0
2017-Apr-22 18:00N 46°30' W 001°47'0 0.0
2017-Apr-22 17:30N 46°30' W 001°47'0 0.0
2017-Apr-22 17:00N 46°30' W 001°47'0 0.0
2017-Apr-22 16:30N 46°30' W 001°47'0 0.0
2017-Apr-22 16:00N 46°30' W 001°47'0 0.0
2017-Apr-22 15:30N 46°30' W 001°47'0 0.0
2017-Apr-22 14:58N 46°30' W 001°47'0 0.0
2017-Apr-22 13:58N 46°30' W 001°47'0 0.0
2017-Apr-22 13:28N 46°30' W 001°47'0 0.0
2017-Apr-22 12:58N 46°30' W 001°47'0 0.0
2017-Apr-22 12:28N 46°30' W 001°47'0 0.0
2017-Apr-22 11:58N 46°30' W 001°47'0 0.0
2017-Apr-22 11:28N 46°30' W 001°47'0 0.0
2017-Apr-22 10:58N 46°30' W 001°47'0 0.0
2017-Apr-22 10:28N 46°30' W 001°47'0 0.0
2017-Apr-21 14:34N 46°30' W 001°47'0 0.0
2017-Apr-21 14:28N 46°30' W 001°47'0 0.0
2017-Apr-21 00:01N 46°30' W 001°47'0 0.1
2017-Apr-20 23:58N 46°30' W 001°47'0 0.2
2017-Apr-20 23:30N 46°30' W 001°48'1 2.4
2017-Apr-20 23:00N 46°29' W 001°49'4 7.6
2017-Apr-20 22:30N 46°32' W 001°53'4 8.3
2017-Apr-20 22:00N 46°35' W 001°57'48 7.9
2017-Apr-20 15:54N 47°09' W 002°46'3 6.9
2017-Apr-20 15:27N 47°12' W 002°49'4 7.6
2017-Apr-20 14:57N 47°15' W 002°53'4 7.7
2017-Apr-20 14:27N 47°17' W 002°57'7 7.4
2017-Apr-20 13:27N 47°23' W 003°04'3 7.1
2017-Apr-20 13:00N 47°25' W 003°07'3 6.8
2017-Apr-20 12:30N 47°28' W 003°09'4 7.4
2017-Apr-20 12:00N 47°31' W 003°12'3 6.7
2017-Apr-20 11:30N 47°34' W 003°15'4 7.2
2017-Apr-20 11:00N 47°37' W 003°18'4 7.5
2017-Apr-20 10:30N 47°40' W 003°21'3 6.8
2017-Apr-20 10:00N 47°43' W 003°22'0 0.7
2017-Apr-20 09:30N 47°44' W 003°22'0 0.0
2017-Apr-20 08:01N 47°44' W 003°22'0 0.0
2017-Apr-20 07:58N 47°44' W 003°22'  
2017-Apr-17 15:55N 47°44' W 003°22'1 2.8
2017-Apr-17 15:30N 47°43' W 003°22'2 3.8
2017-Apr-17 15:00N 47°41' W 003°24'2 2.3
2017-Apr-17 14:00N 47°39' W 003°24'1 2.6
2017-Apr-17 13:31N 47°38' W 003°22'2 3.7
2017-Apr-17 13:01N 47°36' W 003°21'3 5.2
2017-Apr-17 12:31N 47°34' W 003°19'3 5.1
2017-Apr-17 12:01N 47°37' W 003°20'2 3.8
2017-Apr-17 11:31N 47°38' W 003°21'3 5.3
2017-Apr-17 11:01N 47°41' W 003°22'2 4.9
2017-Apr-17 10:30N 47°43' W 003°22'0 1.0
2017-Apr-17 09:59N 47°44' W 003°22'0 0.0
2017-Apr-17 09:29N 47°44' W 003°22'  
Track history (hours):
 
Tides and Currents Weather Stations Pressure Air Temp Water Temp Dewpoint Dewpoint Depression Visibility Wind Speed Wind Dir Waves Ship Positions

Tetraktys

Last reported at 2017-Apr-25 16:07 UTC. Time now 2017-Apr-27 07:19 UTC.
Position N 46°30' W 001°47'.

Length 9 m.

Type: Sailing vessel. MMSI: 205620700.

Date/timePositionNaut miles runAvg speedWind from/ knotsBaromVisibWave heightAir tempDewpointWater temp
2017-Apr-25 16:07N 46°30' W 001°47'0 0.0
2017-Apr-25 15:58N 46°30' W 001°47'0 0.0
2017-Apr-25 15:28N 46°30' W 001°47'0 0.0
2017-Apr-25 15:00N 46°30' W 001°47'0 0.0
2017-Apr-25 14:30N 46°30' W 001°47'0 0.0
2017-Apr-25 13:30N 46°30' W 001°47'0 0.0
2017-Apr-25 13:00N 46°30' W 001°47'0 0.0
2017-Apr-25 12:30N 46°30' W 001°47'2 4.0
2017-Apr-25 12:00N 46°28' W 001°47'0 0.2
2017-Apr-25 11:30N 46°28' W 001°47'1 1.8
2017-Apr-25 11:00N 46°28' W 001°46'2 3.7
2017-Apr-25 10:30N 46°27' W 001°49'2 3.3
2017-Apr-25 10:00N 46°26' W 001°50'3 5.9
2017-Apr-25 09:30N 46°29' W 001°49'1 2.9
2017-Apr-25 09:00N 46°28' W 001°48'1 2.8
2017-Apr-25 08:30N 46°26' W 001°49'2 3.6
2017-Apr-25 08:00N 46°28' W 001°48'2 4.5
2017-Apr-25 07:29N 46°30' W 001°47'0 0.0
2017-Apr-25 06:59N 46°30' W 001°47'0 0.0
2017-Apr-25 06:29N 46°30' W 001°47'0 0.0
2017-Apr-24 16:03N 46°30' W 001°47'0 0.0
2017-Apr-24 16:00N 46°30' W 001°47'1 2.7
2017-Apr-24 15:30N 46°29' W 001°47'2 3.2
2017-Apr-24 15:00N 46°27' W 001°49'2 3.2
2017-Apr-24 14:30N 46°26' W 001°50'2 1.9
2017-Apr-24 13:31N 46°28' W 001°50'2 3.4
2017-Apr-24 13:01N 46°29' W 001°48'2 4.2
2017-Apr-24 12:31N 46°27' W 001°48'1 1.4
2017-Apr-24 12:00N 46°27' W 001°49'1 1.4
2017-Apr-24 11:31N 46°27' W 001°48'2 4.6
2017-Apr-24 11:01N 46°29' W 001°47'1 1.7
2017-Apr-24 10:31N 46°28' W 001°48'2 4.5
2017-Apr-24 10:01N 46°27' W 001°50'1 2.3
2017-Apr-24 09:31N 46°28' W 001°51'2 4.3
2017-Apr-24 09:00N 46°28' W 001°47'1 2.8
2017-Apr-24 08:31N 46°27' W 001°49'2 3.2
2017-Apr-24 08:01N 46°28' W 001°47'2 3.4
2017-Apr-24 07:30N 46°30' W 001°47'0 0.0
2017-Apr-23 16:12N 46°30' W 001°47'0 0.0
2017-Apr-23 16:00N 46°30' W 001°47'0 0.0
2017-Apr-23 15:28N 46°30' W 001°47'0 0.0
2017-Apr-23 15:00N 46°30' W 001°47'0 0.0
2017-Apr-23 14:30N 46°30' W 001°47'0 0.0
2017-Apr-23 13:30N 46°30' W 001°47'0 0.0
2017-Apr-23 13:00N 46°30' W 001°47'0 0.0
2017-Apr-23 12:30N 46°30' W 001°47'0 0.0
2017-Apr-23 12:00N 46°30' W 001°47'0 0.0
2017-Apr-23 11:30N 46°30' W 001°47'0 0.0
2017-Apr-23 11:00N 46°30' W 001°47'0 0.0
2017-Apr-23 10:30N 46°30' W 001°47'0 0.0
2017-Apr-23 10:00N 46°30' W 001°47'0 0.0
2017-Apr-23 09:30N 46°30' W 001°47'0 0.0
2017-Apr-23 09:00N 46°30' W 001°47'0 0.0
2017-Apr-23 08:30N 46°30' W 001°47'0 0.0
2017-Apr-23 08:00N 46°30' W 001°47'0 0.0
2017-Apr-23 07:30N 46°30' W 001°47'0 0.0
2017-Apr-23 07:00N 46°30' W 001°47'0 0.0
2017-Apr-23 06:30N 46°30' W 001°47'0 0.0
2017-Apr-23 06:00N 46°30' W 001°47'0 0.0
2017-Apr-23 05:30N 46°30' W 001°47'0 0.0
2017-Apr-23 05:00N 46°30' W 001°47'0 0.0
2017-Apr-23 04:30N 46°30' W 001°47'0 0.0
2017-Apr-23 04:00N 46°30' W 001°47'0 0.0
2017-Apr-23 03:27N 46°30' W 001°47'0 0.0
2017-Apr-23 03:00N 46°30' W 001°47'0 0.0
2017-Apr-23 02:30N 46°30' W 001°47'0 0.0
2017-Apr-23 02:00N 46°30' W 001°47'0 0.0
2017-Apr-23 01:30N 46°30' W 001°47'0 0.0
2017-Apr-23 01:00N 46°30' W 001°47'0 0.0
2017-Apr-23 00:30N 46°30' W 001°47'0 0.0
2017-Apr-23 00:00N 46°30' W 001°47'0 0.0
2017-Apr-22 23:30N 46°30' W 001°47'0 0.0
2017-Apr-22 23:00N 46°30' W 001°47'0 0.0
2017-Apr-22 22:30N 46°30' W 001°47'0 0.0
2017-Apr-22 22:00N 46°30' W 001°47'0 0.0
2017-Apr-22 21:30N 46°30' W 001°47'0 0.0
2017-Apr-22 21:00N 46°30' W 001°47'0 0.0
2017-Apr-22 20:30N 46°30' W 001°47'0 0.0
2017-Apr-22 20:00N 46°30' W 001°47'0 0.0
2017-Apr-22 19:27N 46°30' W 001°47'0 0.0
2017-Apr-22 19:00N 46°30' W 001°47'0 0.0
2017-Apr-22 18:30N 46°30' W 001°47'0 0.0
2017-Apr-22 18:00N 46°30' W 001°47'0 0.0
2017-Apr-22 17:30N 46°30' W 001°47'0 0.0
2017-Apr-22 17:00N 46°30' W 001°47'0 0.0
2017-Apr-22 16:30N 46°30' W 001°47'0 0.0
2017-Apr-22 16:00N 46°30' W 001°47'0 0.0
2017-Apr-22 15:30N 46°30' W 001°47'0 0.0
2017-Apr-22 14:58N 46°30' W 001°47'0 0.0
2017-Apr-22 13:58N 46°30' W 001°47'0 0.0
2017-Apr-22 13:28N 46°30' W 001°47'0 0.0
2017-Apr-22 12:58N 46°30' W 001°47'0 0.0
2017-Apr-22 12:28N 46°30' W 001°47'0 0.0
2017-Apr-22 11:58N 46°30' W 001°47'0 0.0
2017-Apr-22 11:28N 46°30' W 001°47'0 0.0
2017-Apr-22 10:58N 46°30' W 001°47'0 0.0
2017-Apr-22 10:28N 46°30' W 001°47'0 0.0
2017-Apr-21 14:34N 46°30' W 001°47'0 0.0
2017-Apr-21 14:28N 46°30' W 001°47'0 0.0
2017-Apr-21 00:01N 46°30' W 001°47'0 0.1
2017-Apr-20 23:58N 46°30' W 001°47'0 0.2
2017-Apr-20 23:30N 46°30' W 001°48'1 2.4
2017-Apr-20 23:00N 46°29' W 001°49'4 7.6
2017-Apr-20 22:30N 46°32' W 001°53'4 8.3
2017-Apr-20 22:00N 46°35' W 001°57'48 7.9
2017-Apr-20 15:54N 47°09' W 002°46'3 6.9
2017-Apr-20 15:27N 47°12' W 002°49'4 7.6
2017-Apr-20 14:57N 47°15' W 002°53'4 7.7
2017-Apr-20 14:27N 47°17' W 002°57'7 7.4
2017-Apr-20 13:27N 47°23' W 003°04'3 7.1
2017-Apr-20 13:00N 47°25' W 003°07'3 6.8
2017-Apr-20 12:30N 47°28' W 003°09'4 7.4
2017-Apr-20 12:00N 47°31' W 003°12'3 6.7
2017-Apr-20 11:30N 47°34' W 003°15'4 7.2
2017-Apr-20 11:00N 47°37' W 003°18'4 7.5
2017-Apr-20 10:30N 47°40' W 003°21'3 6.8
2017-Apr-20 10:00N 47°43' W 003°22'0 0.7
2017-Apr-20 09:30N 47°44' W 003°22'0 0.0
2017-Apr-20 08:01N 47°44' W 003°22'0 0.0
2017-Apr-20 07:58N 47°44' W 003°22'  
2017-Apr-17 15:55N 47°44' W 003°22'1 2.8
2017-Apr-17 15:30N 47°43' W 003°22'2 3.8
2017-Apr-17 15:00N 47°41' W 003°24'2 2.3
2017-Apr-17 14:00N 47°39' W 003°24'1 2.6
2017-Apr-17 13:31N 47°38' W 003°22'2 3.7
2017-Apr-17 13:01N 47°36' W 003°21'3 5.2
2017-Apr-17 12:31N 47°34' W 003°19'3 5.1
2017-Apr-17 12:01N 47°37' W 003°20'2 3.8
2017-Apr-17 11:31N 47°38' W 003°21'3 5.3
2017-Apr-17 11:01N 47°41' W 003°22'2 4.9
2017-Apr-17 10:30N 47°43' W 003°22'0 1.0
2017-Apr-17 09:59N 47°44' W 003°22'0 0.0
2017-Apr-17 09:29N 47°44' W 003°22'  

Dump ship's entire track history